Time;durP1;ratioP1;P1;durP2;ratioP2;P2;SDS_P1;SDS_P2;PMS_P1;PMS_P2;Temp;Humidity;BMP_temperature;BMP_pressure;BME280_temperature;BME280_humidity;BME280_pressure;Samples;Min_cycle;Max_cycle;Signal;HPM_P1;HPM_P2
2021/11/06 00:02:02;;;;;;;9.15;6.25;;;256.30;2252.80;;;;;;5033545;28;20029;-61
2021/11/06 00:04:28;;;;;;;5.78;4.85;;;256.30;2252.80;;;;;;5033374;28;20037;-64
2021/11/06 00:06:54;;;;;;;8.63;6.38;;;256.20;2252.80;;;;;;5033277;28;20037;-64
2021/11/06 00:09:19;;;;;;;10.07;6.82;;;256.20;2252.80;;;;;;5033328;28;20424;-57
2021/11/06 00:11:45;;;;;;;7.53;5.32;;;256.20;2252.80;;;;;;5033475;28;20029;-65
2021/11/06 00:14:11;;;;;;;11.80;6.68;;;256.10;2252.80;;;;;;5033092;28;20026;-65
2021/11/06 00:16:37;;;;;;;23.42;11.15;;;256.10;2252.80;;;;;;5033134;28;20033;-63
2021/11/06 00:19:03;;;;;;;10.98;6.68;;;256.10;2252.80;;;;;;5033165;28;20036;-63
2021/11/06 00:21:28;;;;;;;8.30;5.53;;;256.20;2252.80;;;;;;5033117;28;20029;-62
2021/11/06 00:23:54;;;;;;;10.00;6.93;;;256.30;2252.80;;;;;;5033158;28;20135;-65
2021/11/06 00:26:20;;;;;;;8.07;5.75;;;256.40;2252.80;;;;;;5032875;28;20030;-57
2021/11/06 00:28:46;;;;;;;7.47;5.13;;;256.30;2252.80;;;;;;5031943;28;20037;-65
2021/11/06 00:31:12;;;;;;;7.28;5.53;;;256.30;2252.80;;;;;;5032713;28;20033;-62
2021/11/06 00:33:37;;;;;;;8.45;5.22;;;256.40;2252.80;;;;;;5031598;28;20037;-64
2021/11/06 00:36:03;;;;;;;5.35;3.55;;;256.50;2252.80;;;;;;5032875;28;20036;-65
2021/11/06 00:38:29;;;;;;;5.97;4.72;;;256.50;2252.80;;;;;;5033030;28;20026;-59
2021/11/06 00:40:55;;;;;;;9.18;7.43;;;256.50;2252.80;;;;;;5032645;28;20021;-66
2021/11/06 00:43:20;;;;;;;6.75;5.15;;;256.50;2252.80;;;;;;5032519;28;20063;-62
2021/11/06 00:45:46;;;;;;;8.57;5.00;;;256.10;2252.80;;;;;;5032596;28;20018;-61
2021/11/06 00:48:12;;;;;;;6.18;4.20;;;256.20;2252.80;;;;;;5032340;28;20386;-62
2021/11/06 00:50:38;;;;;;;10.98;4.00;;;256.30;2252.80;;;;;;5032601;28;20025;-63
2021/11/06 00:53:03;;;;;;;7.07;4.00;;;256.30;2252.80;;;;;;5032385;28;20041;-63
2021/11/06 00:55:29;;;;;;;11.43;7.72;;;256.20;2252.80;;;;;;5032607;28;20021;-62
2021/11/06 00:57:55;;;;;;;8.50;6.28;;;256.20;2252.80;;;;;;5031846;28;20097;-62
2021/11/06 01:00:21;;;;;;;12.05;7.65;;;256.30;2252.80;;;;;;5031898;28;20056;-64
2021/11/06 01:02:48;;;;;;;13.68;8.75;;;256.30;2252.80;;;;;;5032337;28;20029;-62
2021/11/06 01:05:14;;;;;;;7.82;6.95;;;256.30;2252.80;;;;;;5032390;28;20030;-63
2021/11/06 01:07:41;;;;;;;6.93;5.95;;;256.20;2252.80;;;;;;5031988;28;20037;-58
2021/11/06 01:10:09;;;;;;;8.88;6.35;;;256.20;2252.80;;;;;;5032443;28;20033;-64
2021/11/06 01:12:35;;;;;;;8.65;6.57;;;256.20;2252.80;;;;;;5032275;28;20074;-63
2021/11/06 01:15:01;;;;;;;7.53;5.28;;;256.10;2252.80;;;;;;5032053;28;20468;-62
2021/11/06 01:17:27;;;;;;;6.18;5.38;;;256.10;2252.80;;;;;;5032086;28;20025;-65
2021/11/06 01:19:52;;;;;;;7.22;5.85;;;256.20;2252.80;;;;;;5032210;28;20554;-63
2021/11/06 01:22:18;;;;;;;8.15;4.53;;;256.10;2252.80;;;;;;5032208;28;20026;-62
2021/11/06 01:24:44;;;;;;;6.22;4.80;;;256.10;2252.80;;;;;;5031890;28;20103;-56
2021/11/06 01:27:10;;;;;;;7.15;6.22;;;256.00;2252.80;;;;;;5031728;28;20092;-57
2021/11/06 01:29:38;;;;;;;9.27;8.25;;;256.20;2252.80;;;;;;5031735;28;20464;-62
2021/11/06 01:32:06;;;;;;;7.20;4.40;;;256.10;2252.80;;;;;;5031739;28;20037;-57
2021/11/06 01:34:33;;;;;;;6.65;5.53;;;256.10;2252.80;;;;;;5031750;28;20021;-60
2021/11/06 01:36:59;;;;;;;5.43;4.07;;;256.00;2252.80;;;;;;5031752;28;20490;-56
2021/11/06 01:39:24;;;;;;;5.75;4.20;;;256.00;2252.80;;;;;;5031531;28;20025;-57
2021/11/06 01:41:50;;;;;;;5.07;3.95;;;256.00;2252.80;;;;;;5031450;28;20029;-56
2021/11/06 01:44:16;;;;;;;4.57;3.53;;;231.30;2252.80;;;;;;5031612;28;20032;-55
2021/11/06 01:46:42;;;;;;;6.03;3.80;;;231.30;2252.80;;;;;;5031237;28;20029;-58
2021/11/06 01:49:08;;;;;;;5.35;3.75;;;231.30;2252.80;;;;;;5031367;28;20029;-58
2021/11/06 01:51:33;;;;;;;4.40;3.55;;;256.00;2252.80;;;;;;5031284;28;20375;-57
2021/11/06 01:53:59;;;;;;;3.72;2.92;;;256.00;2252.80;;;;;;5031508;28;20022;-55
2021/11/06 01:56:25;;;;;;;5.90;3.90;;;256.00;2252.80;;;;;;5031480;28;20026;-55
2021/11/06 01:58:51;;;;;;;4.18;3.17;;;256.00;2252.80;;;;;;5031046;28;20591;-56
2021/11/06 02:01:17;;;;;;;4.70;2.90;;;256.00;2252.80;;;;;;5031102;28;20089;-57
2021/11/06 02:03:45;;;;;;;4.93;3.50;;;256.10;2252.80;;;;;;5030848;28;20495;-55
2021/11/06 02:06:11;;;;;;;5.47;3.17;;;256.00;2252.80;;;;;;5030866;28;20032;-58
2021/11/06 02:08:37;;;;;;;6.20;3.78;;;231.30;2252.80;;;;;;5030171;28;20029;-60
2021/11/06 02:11:05;;;;;;;7.07;4.22;;;231.20;2252.80;;;;;;5029581;28;20083;-56
2021/11/06 02:13:31;;;;;;;7.03;2.75;;;231.30;2252.80;;;;;;5030774;28;20030;-60
2021/11/06 02:15:57;;;;;;;7.07;5.00;;;256.00;2252.80;;;;;;5030966;28;20029;-54
2021/11/06 02:18:23;;;;;;;21.25;15.98;;;256.10;2252.80;;;;;;5030576;28;20079;-57
2021/11/06 02:20:59;;;;;;;12.48;11.35;;;256.10;2252.80;;;;;;5031020;28;20459;-62
2021/11/06 02:23:26;;;;;;;4.53;2.97;;;256.00;2252.80;;;;;;5031072;28;20029;-56
2021/11/06 02:25:52;;;;;;;4.70;3.75;;;231.30;2252.80;;;;;;5030615;28;20025;-62
2021/11/06 02:28:18;;;;;;;6.95;6.18;;;231.30;2252.80;;;;;;5030993;28;20033;-61
2021/11/06 02:30:44;;;;;;;4.78;4.30;;;256.00;2252.80;;;;;;5030466;28;20033;-66
2021/11/06 02:33:10;;;;;;;6.05;3.90;;;256.00;2252.80;;;;;;5030429;28;20034;-59
2021/11/06 02:35:38;;;;;;;6.70;3.42;;;256.00;2252.80;;;;;;5030663;28;20464;-56
2021/11/06 02:38:04;;;;;;;4.05;2.75;;;256.20;2252.80;;;;;;5030084;28;20029;-55
2021/11/06 02:40:30;;;;;;;3.15;2.35;;;256.20;2252.80;;;;;;5030448;28;20030;-62
2021/11/06 02:42:55;;;;;;;4.00;2.92;;;256.00;2252.80;;;;;;5030520;28;20022;-63
2021/11/06 02:45:21;;;;;;;3.92;1.70;;;231.30;2252.80;;;;;;5029031;28;20037;-54
2021/11/06 02:47:48;;;;;;;3.65;2.30;;;231.10;2252.80;;;;;;5030494;28;20060;-61
2021/11/06 02:50:14;;;;;;;3.88;2.70;;;231.10;2252.80;;;;;;5030141;28;20022;-56
2021/11/06 02:52:41;;;;;;;3.05;1.90;;;231.20;2252.80;;;;;;5030631;28;20033;-62
2021/11/06 02:55:07;;;;;;;4.40;1.92;;;231.20;2252.80;;;;;;5030205;28;20028;-62
2021/11/06 02:57:33;;;;;;;2.78;1.50;;;231.10;2252.80;;;;;;5030164;28;20116;-63
2021/11/06 02:59:59;;;;;;;3.45;1.60;;;231.10;2252.80;;;;;;5030090;28;20555;-63
2021/11/06 03:02:25;;;;;;;3.05;1.92;;;256.20;2252.80;;;;;;5030239;28;20025;-56
2021/11/06 03:04:51;;;;;;;4.13;1.77;;;231.20;2252.80;;;;;;5030148;28;20395;-60
2021/11/06 03:07:17;;;;;;;3.35;1.88;;;231.20;2252.80;;;;;;5030121;28;20124;-61
2021/11/06 03:09:43;;;;;;;3.25;1.55;;;256.00;2252.80;;;;;;5030017;28;20436;-56
2021/11/06 03:12:11;;;;;;;2.65;1.88;;;231.30;2252.80;;;;;;5030262;28;20057;-62
2021/11/06 03:14:38;;;;;;;3.83;1.70;;;256.00;2252.80;;;;;;5030186;28;20493;-55
2021/11/06 03:17:04;;;;;;;7.63;5.57;;;256.00;2252.80;;;;;;5029855;28;20095;-61
2021/11/06 03:19:30;;;;;;;3.45;2.28;;;256.00;2252.80;;;;;;5029496;28;20017;-64
2021/11/06 03:21:56;;;;;;;5.18;4.10;;;256.10;2252.80;;;;;;5030200;28;20049;-63
2021/11/06 03:24:22;;;;;;;3.85;3.03;;;256.10;2252.80;;;;;;5028727;28;20514;-58
2021/11/06 03:26:47;;;;;;;4.28;1.80;;;256.20;2252.80;;;;;;5030112;28;20041;-59
2021/11/06 03:29:13;;;;;;;3.30;2.38;;;256.00;2252.80;;;;;;5029774;28;20029;-58
2021/11/06 03:31:39;;;;;;;4.82;3.40;;;256.10;2252.80;;;;;;5029910;28;20091;-55
2021/11/06 03:34:05;;;;;;;5.78;3.47;;;256.60;2252.80;;;;;;5029782;28;20041;-58
2021/11/06 03:36:30;;;;;;;6.93;3.97;;;256.10;2252.80;;;;;;5029664;28;20033;-60
2021/11/06 03:38:56;;;;;;;5.90;3.08;;;231.30;2252.80;;;;;;5029747;28;20029;-65
2021/11/06 03:41:22;;;;;;;4.30;2.58;;;231.20;2252.80;;;;;;5029750;28;20037;-64
2021/11/06 03:43:48;;;;;;;10.77;7.10;;;231.10;2252.80;;;;;;5029999;28;20022;-64
2021/11/06 03:46:14;;;;;;;4.55;3.38;;;231.20;2252.80;;;;;;5029525;28;20128;-60
2021/11/06 03:48:40;;;;;;;8.73;8.02;;;231.20;2252.80;;;;;;5029735;28;20076;-59
2021/11/06 03:51:05;;;;;;;3.35;2.00;;;231.30;2252.80;;;;;;5029915;28;20026;-65
2021/11/06 03:53:31;;;;;;;5.32;4.10;;;231.30;2252.80;;;;;;5029540;28;20029;-63
2021/11/06 03:55:57;;;;;;;3.60;2.25;;;256.00;2252.80;;;;;;5029891;28;20041;-64
2021/11/06 03:58:23;;;;;;;4.25;2.50;;;256.00;2252.80;;;;;;5029500;28;20021;-63
2021/11/06 04:00:51;;;;;;;3.17;1.98;;;256.00;2252.80;;;;;;5029552;28;20132;-64
2021/11/06 04:03:17;;;;;;;3.25;1.98;;;256.00;2252.80;;;;;;5029758;28;20022;-63
2021/11/06 04:05:43;;;;;;;4.75;2.95;;;256.00;2252.80;;;;;;5029379;28;20021;-65
2021/11/06 04:08:08;;;;;;;3.47;2.20;;;231.30;2252.80;;;;;;5029743;28;20095;-64
2021/11/06 04:10:34;;;;;;;5.53;4.75;;;231.20;2252.80;;;;;;5029591;28;20079;-63
2021/11/06 04:13:03;;;;;;;5.57;4.82;;;231.20;2252.80;;;;;;5028061;28;20076;-57
2021/11/06 04:15:29;;;;;;;8.38;7.57;;;231.20;2252.80;;;;;;5029547;28;20021;-62
2021/11/06 04:17:58;;;;;;;10.55;9.65;;;256.00;2252.80;;;;;;5029305;28;20032;-61
2021/11/06 04:20:24;;;;;;;4.30;3.90;;;231.20;2252.80;;;;;;5027936;28;20033;-64
2021/11/06 04:22:50;;;;;;;9.93;9.13;;;231.30;2252.80;;;;;;5029630;28;20026;-61
2021/11/06 04:25:17;;;;;;;6.20;5.68;;;231.30;2252.80;;;;;;5029675;28;20055;-62
2021/11/06 04:27:44;;;;;;;4.78;4.30;;;231.30;2252.80;;;;;;5029130;28;20048;-62
2021/11/06 04:30:10;;;;;;;8.20;7.50;;;231.30;2252.80;;;;;;5029089;28;20025;-59
2021/11/06 04:32:36;;;;;;;5.53;3.38;;;231.30;2252.80;;;;;;5031046;28;20037;-58
2021/11/06 04:35:02;;;;;;;5.20;4.43;;;256.00;2252.80;;;;;;5032613;28;20124;-63
2021/11/06 04:37:28;;;;;;;8.02;7.32;;;231.30;2252.80;;;;;;5033080;28;20033;-57
2021/11/06 04:39:53;;;;;;;3.97;3.58;;;231.30;2252.80;;;;;;5032684;28;20079;-61
2021/11/06 04:42:20;;;;;;;14.60;13.50;;;231.30;2252.80;;;;;;5032897;28;20025;-59
2021/11/06 04:44:45;;;;;;;42.85;39.30;;;256.00;2252.80;;;;;;5032882;28;20080;-58
2021/11/06 04:47:11;;;;;;;5.05;4.50;;;231.30;2252.80;;;;;;5032561;28;20034;-60
2021/11/06 04:49:37;;;;;;;9.13;7.90;;;256.00;2252.80;;;;;;5032530;28;20044;-59
2021/11/06 04:52:04;;;;;;;6.45;5.80;;;256.00;2252.80;;;;;;5032793;28;20033;-63
2021/11/06 04:54:30;;;;;;;5.43;4.22;;;256.00;2252.80;;;;;;5032583;28;20026;-60
2021/11/06 04:56:55;;;;;;;5.38;4.10;;;231.30;2252.80;;;;;;5032710;28;20502;-58
2021/11/06 04:59:21;;;;;;;7.13;5.30;;;231.30;2252.80;;;;;;5032246;28;20025;-56
2021/11/06 05:01:48;;;;;;;19.88;18.17;;;231.20;2252.80;;;;;;5032511;28;20033;-57
2021/11/06 05:04:14;;;;;;;16.52;15.25;;;231.30;2252.80;;;;;;5032078;28;20025;-55
2021/11/06 05:06:40;;;;;;;8.68;7.88;;;231.30;2252.80;;;;;;5031946;28;20462;-57
2021/11/06 05:09:05;;;;;;;16.95;10.85;;;256.00;2252.80;;;;;;5032308;28;20026;-57
2021/11/06 05:11:31;;;;;;;10.13;9.32;;;231.20;2252.80;;;;;;5032064;28;20159;-55
2021/11/06 05:13:58;;;;;;;16.17;14.65;;;231.30;2252.80;;;;;;5032394;28;20026;-59
2021/11/06 05:16:24;;;;;;;12.40;11.27;;;256.10;2252.80;;;;;;5031922;28;20064;-60
2021/11/06 05:18:50;;;;;;;8.93;7.75;;;231.30;2252.80;;;;;;5032177;28;20025;-57
2021/11/06 05:21:16;;;;;;;6.93;5.45;;;231.30;2252.80;;;;;;5032160;28;20082;-56
2021/11/06 05:23:42;;;;;;;8.98;8.13;;;231.30;2252.80;;;;;;5031821;28;20025;-56
2021/11/06 05:26:11;;;;;;;12.68;9.98;;;231.20;2252.80;;;;;;5031871;28;20468;-58
2021/11/06 05:28:36;;;;;;;9.85;7.60;;;231.30;2252.80;;;;;;5031870;28;20025;-56
2021/11/06 05:31:02;;;;;;;8.68;7.18;;;256.00;2252.80;;;;;;5031766;28;20372;-56
2021/11/06 05:33:28;;;;;;;13.15;11.75;;;256.00;2252.80;;;;;;5031869;28;20043;-57
2021/11/06 05:35:53;;;;;;;16.90;13.13;;;231.30;2252.80;;;;;;5031508;28;20498;-57
2021/11/06 05:38:19;;;;;;;13.85;11.63;;;231.20;2252.80;;;;;;5032118;28;20129;-56
2021/11/06 05:40:45;;;;;;;15.32;9.63;;;231.30;2252.80;;;;;;5031809;28;20036;-55
2021/11/06 05:43:11;;;;;;;10.63;7.22;;;231.30;2252.80;;;;;;5031230;28;20033;-57
2021/11/06 05:45:36;;;;;;;14.98;7.85;;;231.30;2252.80;;;;;;5031665;28;20048;-58
2021/11/06 05:48:02;;;;;;;9.65;7.35;;;231.30;2252.80;;;;;;5031313;28;20518;-56
2021/11/06 05:50:28;;;;;;;11.68;7.50;;;256.00;2252.80;;;;;;5031414;28;20380;-55
2021/11/06 05:52:54;;;;;;;10.43;8.20;;;256.00;2252.80;;;;;;5031184;28;20025;-55
2021/11/06 05:55:20;;;;;;;10.35;7.00;;;256.00;2252.80;;;;;;5031232;28;20144;-57
2021/11/06 05:57:46;;;;;;;11.95;7.85;;;256.10;2252.80;;;;;;5031446;28;20037;-55
2021/11/06 06:00:18;;;;;;;11.40;8.27;;;256.20;2252.80;;;;;;5029466;28;20557;-55
2021/11/06 06:02:45;;;;;;;13.50;9.20;;;256.10;2252.80;;;;;;5031108;28;20597;-56
2021/11/06 06:05:11;;;;;;;14.90;9.43;;;256.10;2252.80;;;;;;5030874;28;20026;-59
2021/11/06 06:07:38;;;;;;;12.93;9.90;;;256.10;2252.80;;;;;;5031084;28;20038;-55
2021/11/06 06:10:05;;;;;;;12.57;8.60;;;256.10;2252.80;;;;;;5031065;28;20471;-62
2021/11/06 06:12:31;;;;;;;14.35;10.27;;;256.10;2252.80;;;;;;5031042;28;20109;-59
2021/11/06 06:14:57;;;;;;;18.42;13.02;;;256.10;2252.80;;;;;;5031004;28;20471;-56
2021/11/06 06:17:22;;;;;;;18.98;12.35;;;256.10;2252.80;;;;;;5030634;28;20025;-57
2021/11/06 06:19:48;;;;;;;15.85;11.77;;;256.10;2252.80;;;;;;5030885;28;20025;-56
2021/11/06 06:22:14;;;;;;;23.00;16.92;;;256.20;2252.80;;;;;;5062991;28;20033;-55
2021/11/06 06:24:40;;;;;;;16.15;11.32;;;256.10;2252.80;;;;;;5030714;28;20033;-58
2021/11/06 06:27:05;;;;;;;14.05;10.93;;;256.20;2252.80;;;;;;5030769;28;20029;-57
2021/11/06 06:29:33;;;;;;;13.48;10.10;;;256.10;2252.80;;;;;;5030543;28;20108;-56
2021/11/06 06:31:58;;;;;;;18.08;12.90;;;256.10;2252.80;;;;;;5030780;28;20542;-58
2021/11/06 06:34:24;;;;;;;20.48;13.40;;;256.10;2252.80;;;;;;5029889;28;20025;-56
2021/11/06 06:36:50;;;;;;;18.30;13.23;;;256.00;2252.80;;;;;;5062372;28;20133;-56
2021/11/06 06:39:15;;;;;;;27.38;20.30;;;256.00;2252.80;;;;;;5030635;28;20025;-57
2021/11/06 06:41:41;;;;;;;25.67;17.77;;;256.10;2252.80;;;;;;5030546;28;20071;-60
2021/11/06 06:44:07;;;;;;;21.92;17.92;;;256.10;2252.80;;;;;;5030582;28;20033;-62
2021/11/06 06:46:33;;;;;;;24.23;17.45;;;256.10;2252.80;;;;;;5030398;28;20045;-59
2021/11/06 06:48:59;;;;;;;18.25;13.82;;;256.00;2252.80;;;;;;5030608;28;20018;-60
2021/11/06 06:51:24;;;;;;;17.08;12.00;;;256.10;2252.80;;;;;;5030148;28;20028;-55
2021/11/06 06:53:50;;;;;;;19.17;16.60;;;256.00;2252.80;;;;;;5030241;28;20025;-57
2021/11/06 06:56:16;;;;;;;21.02;13.90;;;256.00;2252.80;;;;;;5029995;28;20029;-61
2021/11/06 06:58:41;;;;;;;17.33;12.68;;;256.00;2252.80;;;;;;5030185;28;20029;-61
2021/11/06 07:01:08;;;;;;;20.63;12.52;;;256.10;2252.80;;;;;;5030213;28;20050;-62
2021/11/06 07:03:34;;;;;;;18.58;12.95;;;256.00;2252.80;;;;;;5030228;28;20037;-55
2021/11/06 07:06:00;;;;;;;15.70;11.85;;;231.20;2252.80;;;;;;5029986;28;20033;-56
2021/11/06 07:08:26;;;;;;;16.23;11.90;;;231.20;2252.80;;;;;;5030457;28;20029;-57
2021/11/06 07:10:52;;;;;;;13.00;9.43;;;231.30;2252.80;;;;;;5030285;28;20431;-55
2021/11/06 07:13:21;;;;;;;17.67;13.35;;;231.30;2252.80;;;;;;5030179;28;20529;-55
2021/11/06 07:15:51;;;;;;;16.08;11.18;;;231.30;2252.80;;;;;;5030334;28;20049;-55
2021/11/06 07:18:17;;;;;;;20.40;13.43;;;231.20;2252.80;;;;;;5030315;28;20064;-58
2021/11/06 07:20:43;;;;;;;23.20;15.90;;;231.20;2252.80;;;;;;5029887;28;20495;-56
2021/11/06 07:23:10;;;;;;;26.95;18.92;;;231.30;2252.80;;;;;;5030145;28;20088;-56
2021/11/06 07:25:36;;;;;;;17.10;12.27;;;256.00;2252.80;;;;;;5029950;28;20025;-56
2021/11/06 07:28:02;;;;;;;16.05;11.18;;;231.20;2252.80;;;;;;5029817;28;20041;-54
2021/11/06 07:30:28;;;;;;;13.05;8.73;;;256.00;2252.80;;;;;;5029926;28;20108;-55
2021/11/06 07:32:53;;;;;;;11.63;8.65;;;256.10;2252.80;;;;;;5029763;28;20114;-55
2021/11/06 07:35:19;;;;;;;12.85;8.45;;;256.00;2252.80;;;;;;5030096;28;20029;-56
2021/11/06 07:37:46;;;;;;;15.65;10.45;;;256.10;2252.80;;;;;;5030097;28;20107;-56
2021/11/06 07:40:13;;;;;;;17.33;11.38;;;256.10;2252.80;;;;;;5029928;28;20064;-56
2021/11/06 07:42:45;;;;;;;14.05;9.82;;;256.00;2252.80;;;;;;5030123;28;20031;-55
2021/11/06 07:45:14;;;;;;;11.55;9.60;;;256.10;2252.80;;;;;;5029839;28;20075;-57
2021/11/06 07:47:40;;;;;;;13.07;9.57;;;256.20;2252.80;;;;;;5029580;28;20041;-56
2021/11/06 07:50:07;;;;;;;14.13;12.65;;;256.10;2252.80;;;;;;5029681;28;20037;-55
2021/11/06 07:52:33;;;;;;;27.70;25.00;;;256.20;2252.80;;;;;;5029875;28;20109;-56
2021/11/06 07:54:59;;;;;;;18.40;16.50;;;256.20;2252.80;;;;;;5029688;28;20113;-56
2021/11/06 07:57:25;;;;;;;12.60;9.77;;;256.40;2252.80;;;;;;5029658;28;20033;-56
2021/11/06 07:59:51;;;;;;;14.52;9.85;;;256.50;2252.80;;;;;;5028153;28;20080;-57
2021/11/06 08:02:16;;;;;;;13.73;11.23;;;256.60;2252.80;;;;;;5029982;28;20032;-56
2021/11/06 08:04:42;;;;;;;15.40;9.40;;;256.80;2252.80;;;;;;5029418;28;20537;-55
2021/11/06 08:07:08;;;;;;;13.50;8.77;;;281.80;2278.40;;;;;;5032147;28;20068;-55
2021/11/06 08:09:34;;;;;;;16.05;13.32;;;281.70;2278.40;;;;;;5033474;28;20539;-56
2021/11/06 08:12:00;;;;;;;15.43;11.45;;;281.80;2278.40;;;;;;5033488;28;20472;-55
2021/11/06 08:14:25;;;;;;;13.82;10.13;;;282.00;2278.40;;;;;;5033353;28;20021;-55
2021/11/06 08:16:56;;;;;;;11.52;9.32;;;282.20;2278.40;;;;;;5033171;28;20369;-55
2021/11/06 08:19:23;;;;;;;13.20;10.45;;;282.40;2278.40;;;;;;5033019;28;20022;-54
2021/11/06 08:21:50;;;;;;;14.82;10.02;;;307.20;2304.00;;;;;;5033116;28;20021;-55
2021/11/06 08:24:17;;;;;;;13.73;9.98;;;307.20;2304.00;;;;;;5033237;28;20033;-58
2021/11/06 08:26:43;;;;;;;14.23;11.35;;;282.20;2278.40;;;;;;5032985;28;20037;-56
2021/11/06 08:29:09;;;;;;;14.80;10.13;;;282.10;2278.40;;;;;;5032921;28;20531;-55
2021/11/06 08:31:35;;;;;;;12.68;9.65;;;281.80;2278.40;;;;;;5033191;28;20032;-55
2021/11/06 08:34:00;;;;;;;14.68;12.70;;;281.80;2278.40;;;;;;5032938;28;20024;-56
2021/11/06 08:36:26;;;;;;;14.13;11.73;;;281.70;2278.40;;;;;;5064838;28;20056;-54
2021/11/06 08:38:52;;;;;;;32.28;22.88;;;281.70;2278.40;;;;;;5032611;28;20044;-53
2021/11/06 08:41:18;;;;;;;22.33;20.00;;;256.90;2252.80;;;;;;5032966;28;20083;-56
2021/11/06 08:43:44;;;;;;;13.02;10.77;;;281.70;2278.40;;;;;;5032724;28;20026;-52
2021/11/06 08:46:10;;;;;;;10.85;8.75;;;281.90;2278.40;;;;;;5032859;28;20033;-56
2021/11/06 08:48:36;;;;;;;15.65;12.68;;;282.00;2278.40;;;;;;5032816;28;20061;-60
2021/11/06 08:51:03;;;;;;;13.07;9.00;;;282.00;2278.40;;;;;;5031556;28;20029;-54
2021/11/06 08:53:29;;;;;;;25.20;22.75;;;282.10;2278.40;;;;;;5032648;28;20021;-54
2021/11/06 08:55:55;;;;;;;18.75;16.42;;;282.10;2278.40;;;;;;5032807;28;20014;-54
2021/11/06 08:58:20;;;;;;;14.35;12.20;;;282.20;2278.40;;;;;;5032463;28;20064;-55
2021/11/06 09:00:49;;;;;;;18.17;15.57;;;282.20;2278.40;;;;;;5032356;28;20041;-54
2021/11/06 09:03:18;;;;;;;11.63;8.82;;;282.10;2278.40;;;;;;5032354;28;20029;-55
2021/11/06 09:05:51;;;;;;;16.17;14.77;;;282.20;2278.40;;;;;;5031960;28;20502;-54
2021/11/06 09:08:31;;;;;;;20.45;18.25;;;282.20;2278.40;;;;;;5064450;28;20080;-54
2021/11/06 09:11:02;;;;;;;15.52;13.18;;;282.20;2278.40;;;;;;5032417;28;20053;-58
2021/11/06 09:13:28;;;;;;;13.63;10.07;;;282.30;2278.40;;;;;;5032208;28;20032;-54
2021/11/06 09:15:54;;;;;;;13.10;10.50;;;282.20;2278.40;;;;;;5032078;28;20030;-60
2021/11/06 09:18:20;;;;;;;13.35;11.93;;;282.20;2278.40;;;;;;5031156;28;20018;-58
2021/11/06 09:20:46;;;;;;;13.07;10.10;;;282.20;2278.40;;;;;;5032037;28;20036;-55
2021/11/06 09:23:13;;;;;;;50.80;35.85;;;282.20;2278.40;;;;;;5032091;28;20491;-55
2021/11/06 09:25:39;;;;;;;24.38;17.98;;;282.50;2278.40;;;;;;5032187;28;20361;-56
2021/11/06 09:28:05;;;;;;;18.75;15.85;;;282.50;2278.40;;;;;;5032023;28;20045;-56
2021/11/06 09:30:31;;;;;;;24.52;20.83;;;282.50;2278.40;;;;;;5031496;28;20030;-56
2021/11/06 09:32:57;;;;;;;38.70;30.42;;;307.30;2304.00;;;;;;5031843;28;20033;-56
2021/11/06 09:35:22;;;;;;;14.52;12.18;;;307.70;2304.00;;;;;;5031587;28;20108;-56
2021/11/06 09:37:49;;;;;;;16.33;12.02;;;307.60;2304.00;;;;;;5031953;28;20108;-56
2021/11/06 09:40:15;;;;;;;12.52;9.52;;;307.80;2304.00;;;;;;5031616;28;20033;-55
2021/11/06 09:42:41;;;;;;;12.77;9.85;;;307.90;2304.00;;;;;;5031594;28;20088;-55
2021/11/06 09:45:09;;;;;;;12.32;8.65;;;307.80;2304.00;;;;;;5031628;28;20022;-59
2021/11/06 09:47:36;;;;;;;12.88;9.23;;;307.60;2304.00;;;;;;5031574;28;20041;-54
2021/11/06 09:50:04;;;;;;;14.82;13.23;;;307.30;2304.00;;;;;;5031290;28;20026;-56
2021/11/06 09:52:30;;;;;;;11.57;9.48;;;307.30;2304.00;;;;;;5031499;28;20021;-61
2021/11/06 09:54:56;;;;;;;13.52;11.23;;;307.20;2304.00;;;;;;5031508;28;20020;-54
2021/11/06 09:57:21;;;;;;;21.30;17.50;;;282.40;2278.40;;;;;;5031350;28;20372;-61
2021/11/06 09:59:47;;;;;;;16.48;11.60;;;282.40;2278.40;;;;;;5031196;28;20050;-55
2021/11/06 10:02:13;;;;;;;18.33;11.88;;;282.50;2278.40;;;;;;5031235;28;20036;-58
2021/11/06 10:04:39;;;;;;;15.10;11.13;;;307.20;2304.00;;;;;;5029592;28;20033;-56
2021/11/06 10:07:20;;;;;;;20.00;15.30;;;282.40;2278.40;;;;;;5031434;28;20038;-56
2021/11/06 10:10:04;;;;;;;19.13;14.15;;;307.40;2304.00;;;;;;5031378;28;20036;-56
2021/11/06 10:12:52;;;;;;;28.60;25.95;;;307.80;2304.00;;;;;;5031140;28;20232;-54
2021/11/06 10:15:20;;;;;;;13.60;12.15;;;307.60;2304.00;;;;;;5031436;28;20026;-56
2021/11/06 10:17:47;;;;;;;10.25;9.15;;;307.50;2304.00;;;;;;5031240;28;20080;-57
2021/11/06 10:20:23;;;;;;;10.80;8.85;;;307.40;2304.00;;;;;;5030956;28;20034;-57
2021/11/06 10:22:50;;;;;;;12.65;11.32;;;307.20;2304.00;;;;;;5031054;28;20025;-55
2021/11/06 10:25:21;;;;;;;12.75;8.23;;;307.40;2304.00;;;;;;5031075;28;20380;-56
2021/11/06 10:27:58;;;;;;;11.50;9.13;;;307.50;2304.00;;;;;;5031028;28;20492;-56
2021/11/06 10:30:31;;;;;;;13.65;11.35;;;307.60;2304.00;;;;;;5029476;28;20029;-56
2021/11/06 10:33:05;;;;;;;15.35;12.02;;;307.80;2304.00;;;;;;5030784;28;20120;-56
2021/11/06 10:35:35;;;;;;;16.85;12.73;;;307.60;2304.00;;;;;;5030533;28;20476;-58
2021/11/06 10:38:14;;;;;;;21.10;16.63;;;307.70;2304.00;;;;;;5030632;28;20064;-57
2021/11/06 10:40:46;;;;;;;13.88;11.55;;;307.50;2304.00;;;;;;5030466;28;20034;-57
2021/11/06 10:43:14;;;;;;;16.50;12.18;;;307.30;2304.00;;;;;;5029733;28;20026;-55
2021/11/06 10:45:46;;;;;;;34.20;30.65;;;307.40;2304.00;;;;;;5029117;28;20108;-55
2021/11/06 10:48:35;;;;;;;20.70;15.70;;;307.30;2304.00;;;;;;5018032;28;20033;-55
2021/11/06 10:51:03;;;;;;;16.58;11.75;;;307.30;2304.00;;;;;;5027108;28;20503;-59
2021/11/06 10:53:40;;;;;;;17.52;14.90;;;282.50;2278.40;;;;;;5029210;28;20029;-56
2021/11/06 10:56:41;;;;;;;14.40;10.93;;;282.40;2278.40;;;;;;5028386;28;20029;-59
2021/11/06 10:59:12;;;;;;;16.27;11.43;;;282.30;2278.40;;;;;;5008012;28;20046;-58
2021/11/06 11:01:41;;;;;;;13.55;9.57;;;282.40;2278.40;;;;;;5009280;28;20046;-58
2021/11/06 11:04:12;;;;;;;14.88;11.23;;;282.20;2278.40;;;;;;5010534;28;20546;-58
2021/11/06 11:06:46;;;;;;;13.93;10.40;;;282.40;2278.40;;;;;;5010375;28;20044;-58
2021/11/06 11:09:18;;;;;;;11.10;9.23;;;282.50;2278.40;;;;;;5010310;28;20026;-59
2021/11/06 11:11:44;;;;;;;12.05;9.25;;;282.50;2278.40;;;;;;5010216;28;20057;-58
2021/11/06 11:14:16;;;;;;;12.02;9.50;;;307.20;2304.00;;;;;;5010634;28;20252;-58
2021/11/06 11:17:02;;;;;;;12.93;10.25;;;282.50;2278.40;;;;;;5010134;28;20029;-58
2021/11/06 11:19:45;;;;;;;19.65;16.00;;;282.40;2278.40;;;;;;5010678;28;20037;-57
2021/11/06 11:22:26;;;;;;;29.63;21.35;;;282.20;2278.40;;;;;;5010155;28;20061;-58
2021/11/06 11:24:53;;;;;;;14.10;11.70;;;282.20;2278.40;;;;;;5010305;28;20100;-58
2021/11/06 11:27:19;;;;;;;16.48;12.32;;;282.20;2278.40;;;;;;5010280;28;20096;-57
2021/11/06 11:29:45;;;;;;;17.33;11.43;;;282.30;2278.40;;;;;;5010019;28;20498;-59
2021/11/06 11:32:12;;;;;;;15.65;12.00;;;282.50;2278.40;;;;;;5028290;28;20043;-55
2021/11/06 11:34:42;;;;;;;21.55;14.95;;;307.30;2304.00;;;;;;5028562;28;20475;-57
2021/11/06 11:37:08;;;;;;;19.60;13.88;;;307.40;2304.00;;;;;;5029690;28;20065;-56
2021/11/06 11:39:34;;;;;;;49.83;36.55;;;307.60;2304.00;;;;;;5029956;28;20022;-57
2021/11/06 11:42:41;;;;;;;15.70;12.18;;;307.60;2304.00;;;;;;5032230;28;20036;-59
2021/11/06 11:45:16;;;;;;;70.40;55.67;;;307.60;2304.00;;;;;;5024690;28;20037;-58
2021/11/06 11:47:51;;;;;;;22.85;20.65;;;307.60;2304.00;;;;;;5033720;28;20069;-58
2021/11/06 11:50:30;;;;;;;14.27;11.38;;;307.50;2304.00;;;;;;5034065;28;20040;-57
2021/11/06 11:52:58;;;;;;;14.73;11.18;;;307.30;2304.00;;;;;;5033754;28;20112;-57
2021/11/06 11:55:44;;;;;;;16.83;13.73;;;307.30;2304.00;;;;;;5033528;28;20234;-58
2021/11/06 11:58:23;;;;;;;14.75;11.35;;;307.20;2304.00;;;;;;5033684;28;20721;-57
2021/11/06 12:00:55;;;;;;;15.68;11.80;;;307.20;2304.00;;;;;;5033519;28;20562;-58
2021/11/06 12:03:45;;;;;;;15.93;9.88;;;282.50;2278.40;;;;;;5033339;28;20037;-58
2021/11/06 12:06:22;;;;;;;14.13;11.15;;;282.20;2278.40;;;;;;5033025;28;20029;-59
2021/11/06 12:08:58;;;;;;;14.75;10.70;;;282.20;2278.40;;;;;;5031263;28;20026;-57
2021/11/06 12:11:27;;;;;;;17.13;12.88;;;282.40;2278.40;;;;;;5031720;28;20464;-57